Terminal Aerodrome Forecast
Issued by NWS

Home | Current Version | Previous Version | Text Only | Print | Product List | Glossary On
Versions: 1 2 3 4 5 6 7 8 9 10 11 12 13 14 15 16 17 18
000
FTUS43 KEAX 290549 CCA
TAFSTJ
TAF COR
KSTJ 290549Z 2906/3006 24005KT P6SM BKN015
     FM290800 31008KT P6SM SCT008 BKN015
      TEMPO 2908/2912 BKN008
     FM291400 34011KT P6SM SCT008 BKN015
     FM292100 35005KT P6SM SCT025 BKN035=

USA.gov is the U.S. government's official web portal to all federal, state and local government web resources and services.